createdAt,value
2023-05-19T00:02:39.883Z,7.53
2023-05-19T00:05:46.156Z,6.38
2023-05-19T00:08:50.262Z,6.25
2023-05-19T00:11:52.843Z,5.75
2023-05-19T00:14:55.298Z,4.30
2023-05-19T00:17:58.154Z,5.83
2023-05-19T00:21:01.164Z,5.22
2023-05-19T00:24:03.894Z,7.35
2023-05-19T00:27:06.329Z,6.47
2023-05-19T00:30:09.110Z,8.98
2023-05-19T00:33:11.433Z,6.33
2023-05-19T00:36:13.752Z,5.45
2023-05-19T00:39:16.120Z,8.20
2023-05-19T00:42:18.483Z,9.57
2023-05-19T00:45:20.831Z,8.23
2023-05-19T00:48:25.024Z,6.80
2023-05-19T00:51:29.679Z,7.20
2023-05-19T00:54:34.413Z,7.38
2023-05-19T00:57:37.868Z,7.05
2023-05-19T01:00:40.821Z,6.32
2023-05-19T01:03:44.287Z,6.03
2023-05-19T01:06:55.004Z,6.75
2023-05-19T01:09:57.909Z,7.05
2023-05-19T01:13:01.846Z,10.35
2023-05-19T01:16:25.083Z,10.20
2023-05-19T01:19:42.541Z,9.27
2023-05-19T01:23:21.587Z,11.57
2023-05-19T01:26:23.967Z,13.07
2023-05-19T01:29:30.770Z,13.20
2023-05-19T01:32:34.716Z,10.73
2023-05-19T01:35:39.620Z,11.40
2023-05-19T01:38:43.972Z,11.50
2023-05-19T01:41:47.519Z,10.45
2023-05-19T01:44:49.980Z,11.40
2023-05-19T01:47:55.591Z,9.43
2023-05-19T01:50:58.491Z,11.53
2023-05-19T01:54:01.340Z,14.23
2023-05-19T01:57:12.874Z,11.15
2023-05-19T02:00:34.209Z,11.25
2023-05-19T02:04:03.578Z,13.10
2023-05-19T02:07:18.697Z,13.10
2023-05-19T02:10:30.939Z,15.02
2023-05-19T02:13:37.908Z,13.30
2023-05-19T02:16:45.812Z,13.13
2023-05-19T02:19:49.402Z,11.65
2023-05-19T02:22:51.857Z,14.07
2023-05-19T02:25:54.188Z,12.35
2023-05-19T02:28:56.631Z,12.38
2023-05-19T02:32:02.241Z,10.55
2023-05-19T02:35:05.038Z,13.23
2023-05-19T02:38:08.910Z,11.20
2023-05-19T02:41:11.214Z,10.23
2023-05-19T02:44:13.614Z,13.48
2023-05-19T02:47:16.309Z,11.95
2023-05-19T02:50:19.643Z,14.73
2023-05-19T02:53:21.925Z,11.97
2023-05-19T02:56:24.308Z,11.02
2023-05-19T02:59:27.050Z,13.15
2023-05-19T03:02:30.847Z,13.35
2023-05-19T03:05:33.309Z,11.75
2023-05-19T03:08:36.459Z,11.43
2023-05-19T03:11:38.757Z,11.05
2023-05-19T03:14:41.303Z,11.70
2023-05-19T03:17:43.743Z,13.27
2023-05-19T03:20:46.431Z,13.18
2023-05-19T03:23:48.850Z,15.33
2023-05-19T03:26:51.775Z,14.93
2023-05-19T03:29:54.551Z,13.75
2023-05-19T03:32:57.906Z,12.30
2023-05-19T03:36:00.405Z,10.65
2023-05-19T03:39:07.822Z,11.50
2023-05-19T03:42:10.427Z,11.60
2023-05-19T03:45:12.975Z,11.93
2023-05-19T03:48:16.063Z,11.18
2023-05-19T03:51:44.940Z,14.00
2023-05-19T03:55:14.858Z,13.03
2023-05-19T03:58:17.268Z,9.75
2023-05-19T04:01:19.628Z,11.32
2023-05-19T04:04:22.021Z,19.35
2023-05-19T04:07:24.599Z,11.73
2023-05-19T04:10:27.245Z,14.97
2023-05-19T04:13:33.154Z,10.98
2023-05-19T04:16:36.069Z,10.68
2023-05-19T04:19:39.030Z,11.35
2023-05-19T04:22:41.920Z,12.40
2023-05-19T04:25:48.899Z,10.53
2023-05-19T04:28:51.561Z,14.93
2023-05-19T04:31:53.952Z,11.18
2023-05-19T04:34:58.942Z,11.82
2023-05-19T04:38:03.824Z,11.90
2023-05-19T04:41:12.236Z,12.67
2023-05-19T04:44:18.467Z,10.30
2023-05-19T04:47:28.353Z,12.38
2023-05-19T04:50:32.520Z,10.40
2023-05-19T04:53:36.730Z,9.32
2023-05-19T04:56:42.123Z,10.23
2023-05-19T04:59:44.672Z,14.85
2023-05-19T05:02:47.256Z,13.95
2023-05-19T05:05:53.462Z,11.20
2023-05-19T05:08:56.965Z,10.20
2023-05-19T05:12:02.932Z,11.13
2023-05-19T05:15:07.189Z,10.00
2023-05-19T05:18:10.217Z,9.15
2023-05-19T05:21:13.484Z,12.27
2023-05-19T05:24:16.673Z,11.13
2023-05-19T05:27:26.447Z,12.63
2023-05-19T05:30:28.954Z,11.98
2023-05-19T05:33:32.612Z,14.38
2023-05-19T05:36:35.257Z,14.27
2023-05-19T05:39:37.878Z,11.93
2023-05-19T05:42:40.569Z,15.10
2023-05-19T05:45:43.029Z,11.98
2023-05-19T05:48:46.312Z,12.27
2023-05-19T05:52:05.080Z,14.90
2023-05-19T05:55:14.445Z,10.82
2023-05-19T05:58:17.503Z,11.90
2023-05-19T06:01:22.219Z,11.90
2023-05-19T06:04:28.978Z,11.43
2023-05-19T06:07:32.653Z,11.35
2023-05-19T06:10:36.857Z,11.48
2023-05-19T06:13:43.751Z,9.93
2023-05-19T06:16:53.280Z,11.40
2023-05-19T06:19:56.269Z,9.77
2023-05-19T06:22:58.622Z,11.98
2023-05-19T06:26:02.723Z,12.20
2023-05-19T06:29:06.588Z,10.63
2023-05-19T06:32:10.586Z,11.48
2023-05-19T06:35:16.868Z,9.32
2023-05-19T06:38:19.543Z,10.05
2023-05-19T06:41:21.956Z,12.75
2023-05-19T06:44:26.898Z,9.87
2023-05-19T06:47:30.132Z,9.25
2023-05-19T06:50:32.769Z,8.55
2023-05-19T06:53:36.774Z,9.48
2023-05-19T06:56:45.105Z,9.95
2023-05-19T06:59:49.769Z,7.43
2023-05-19T07:02:53.712Z,8.50
2023-05-19T07:05:57.527Z,8.05
2023-05-19T07:09:00.172Z,11.18
2023-05-19T07:12:12.965Z,10.75
2023-05-19T07:15:17.208Z,9.07
2023-05-19T07:18:20.230Z,11.93
2023-05-19T07:21:22.938Z,10.05
2023-05-19T07:24:28.233Z,9.93
2023-05-19T07:27:30.725Z,7.47
2023-05-19T07:30:34.877Z,6.33
2023-05-19T07:33:38.163Z,8.30
2023-05-19T07:36:40.592Z,7.93
2023-05-19T07:39:43.032Z,9.38
2023-05-19T07:42:45.387Z,7.07
2023-05-19T07:45:48.490Z,6.33
2023-05-19T07:48:52.400Z,8.32
2023-05-19T07:51:55.261Z,7.25
2023-05-19T07:54:59.601Z,7.65
2023-05-19T07:58:04.806Z,7.25
2023-05-19T08:01:07.074Z,5.30
2023-05-19T08:04:12.678Z,10.20
2023-05-19T08:07:15.533Z,6.50
2023-05-19T08:10:18.124Z,6.65
2023-05-19T08:13:20.505Z,5.18
2023-05-19T08:16:24.894Z,6.77
2023-05-19T08:19:28.900Z,5.25
2023-05-19T08:22:31.256Z,7.68
2023-05-19T08:25:35.835Z,5.75
2023-05-19T08:28:39.322Z,6.32
2023-05-19T08:31:41.902Z,7.87
2023-05-19T08:34:45.614Z,4.82
2023-05-19T08:37:48.517Z,4.60
2023-05-19T08:40:59.432Z,4.93
2023-05-19T08:44:07.542Z,6.30
2023-05-19T08:47:13.997Z,8.13
2023-05-19T08:50:21.465Z,5.05
2023-05-19T08:53:33.850Z,6.75
2023-05-19T08:56:37.901Z,8.48
2023-05-19T08:59:43.568Z,6.78
2023-05-19T09:02:59.657Z,4.73
2023-05-19T09:06:06.392Z,8.25
2023-05-19T09:09:09.758Z,6.22
2023-05-19T09:12:13.852Z,6.05
2023-05-19T09:15:20.609Z,3.97
2023-05-19T09:18:24.892Z,7.33
2023-05-19T09:21:31.581Z,4.70
2023-05-19T09:24:34.828Z,3.90
2023-05-19T09:27:37.371Z,4.40
2023-05-19T09:30:39.831Z,8.18
2023-05-19T09:33:45.856Z,7.47
2023-05-19T09:36:53.639Z,4.40
2023-05-19T09:39:56.851Z,6.00
2023-05-19T09:42:59.165Z,5.03
2023-05-19T09:46:10.586Z,7.75
2023-05-19T09:49:16.536Z,5.50
2023-05-19T09:52:19.362Z,5.05
2023-05-19T09:55:28.863Z,5.45
2023-05-19T09:58:35.452Z,5.07
2023-05-19T10:01:41.330Z,5.75
2023-05-19T10:04:46.403Z,4.87
2023-05-19T10:07:54.927Z,5.50
2023-05-19T10:10:57.981Z,6.15
2023-05-19T10:14:00.818Z,4.07
2023-05-19T10:17:03.946Z,4.45
2023-05-19T10:20:18.676Z,5.67
2023-05-19T10:23:24.659Z,5.65
2023-05-19T10:26:31.635Z,5.47
2023-05-19T10:29:38.353Z,4.88
2023-05-19T10:32:44.814Z,4.03
2023-05-19T10:36:24.829Z,4.00
2023-05-19T10:39:35.734Z,5.82
2023-05-19T10:43:02.784Z,4.40
2023-05-19T10:46:06.548Z,3.65
2023-05-19T10:49:08.995Z,3.28
2023-05-19T10:52:31.088Z,4.57
2023-05-19T10:55:50.569Z,6.30
2023-05-19T10:58:53.151Z,4.72
2023-05-19T11:01:55.693Z,6.35
2023-05-19T11:05:09.858Z,4.22
2023-05-19T11:08:13.112Z,4.00
2023-05-19T11:11:17.083Z,3.92
2023-05-19T11:14:26.717Z,4.25
2023-05-19T11:17:29.710Z,4.25
2023-05-19T11:20:37.399Z,4.88
2023-05-19T11:23:43.442Z,4.33
2023-05-19T11:26:46.440Z,3.83
2023-05-19T11:29:49.581Z,6.13
2023-05-19T11:32:54.253Z,9.10
2023-05-19T11:35:58.608Z,7.25
2023-05-19T11:39:02.646Z,7.10
2023-05-19T11:42:05.074Z,3.70
2023-05-19T11:45:08.365Z,4.50
2023-05-19T11:48:16.046Z,3.72
2023-05-19T11:51:22.917Z,4.30
2023-05-19T11:54:31.648Z,5.80
2023-05-19T11:57:36.406Z,4.15
2023-05-19T12:00:40.844Z,7.18
2023-05-19T12:03:43.689Z,4.30
2023-05-19T12:06:49.466Z,5.50
2023-05-19T12:09:52.525Z,3.77
2023-05-19T12:12:55.612Z,13.52
2023-05-19T12:16:01.327Z,5.80
2023-05-19T12:19:06.814Z,4.18
2023-05-19T12:22:10.156Z,4.82
2023-05-19T12:25:12.768Z,3.93
2023-05-19T12:28:16.696Z,4.10
2023-05-19T12:31:20.871Z,4.65
2023-05-19T12:34:23.829Z,3.67
2023-05-19T12:37:33.332Z,4.85
2023-05-19T12:40:37.939Z,4.10
2023-05-19T12:43:41.302Z,6.22
2023-05-19T12:46:44.465Z,6.55
2023-05-19T12:49:57.314Z,3.88
2023-05-19T12:53:00.086Z,3.17
2023-05-19T12:56:12.013Z,5.23
2023-05-19T12:59:34.832Z,6.90
2023-05-19T13:03:05.615Z,5.95
2023-05-19T13:06:09.715Z,4.80
2023-05-19T13:09:21.818Z,3.65
2023-05-19T13:12:28.512Z,4.07
2023-05-19T13:15:37.861Z,6.63
2023-05-19T13:18:44.412Z,5.68
2023-05-19T13:21:51.247Z,3.30
2023-05-19T13:24:53.650Z,6.07
2023-05-19T13:27:56.839Z,4.70
2023-05-19T13:30:59.725Z,3.90
2023-05-19T13:34:02.865Z,6.32
2023-05-19T13:37:06.648Z,5.72
2023-05-19T13:40:11.566Z,3.58
2023-05-19T13:43:14.031Z,4.00
2023-05-19T13:46:16.507Z,4.47
2023-05-19T13:49:18.843Z,4.70
2023-05-19T13:52:21.900Z,4.32
2023-05-19T13:55:27.423Z,4.55
2023-05-19T13:58:30.911Z,4.30
2023-05-19T14:01:35.496Z,3.65
2023-05-19T14:04:39.147Z,3.90
2023-05-19T14:07:43.118Z,5.13
2023-05-19T14:10:48.555Z,4.10
2023-05-19T14:13:52.762Z,3.53
2023-05-19T14:16:56.202Z,6.13
2023-05-19T14:20:00.210Z,4.95
2023-05-19T14:23:03.114Z,3.72
2023-05-19T14:26:05.686Z,5.93
2023-05-19T14:29:08.678Z,3.97
2023-05-19T14:32:10.948Z,5.80
2023-05-19T14:35:13.485Z,3.50
2023-05-19T14:38:17.053Z,3.72
2023-05-19T14:41:19.374Z,6.70
2023-05-19T14:44:21.646Z,3.23
2023-05-19T14:47:26.266Z,4.25
2023-05-19T14:50:29.710Z,6.70
2023-05-19T14:53:32.160Z,3.95
2023-05-19T14:56:37.646Z,4.22
2023-05-19T14:59:40.071Z,5.77
2023-05-19T15:02:42.582Z,5.30
2023-05-19T15:05:46.002Z,6.13
2023-05-19T15:08:48.441Z,5.25
2023-05-19T15:11:50.867Z,3.60
2023-05-19T15:14:53.261Z,4.20
2023-05-19T15:17:55.896Z,9.95
2023-05-19T15:20:58.278Z,4.45
2023-05-19T15:24:01.627Z,4.35
2023-05-19T15:27:04.434Z,3.10
2023-05-19T15:30:07.281Z,4.53
2023-05-19T15:33:12.320Z,3.92
2023-05-19T15:36:16.738Z,4.20
2023-05-19T15:39:19.477Z,3.38
2023-05-19T15:42:21.767Z,3.85
2023-05-19T15:45:24.120Z,3.47
2023-05-19T15:48:28.851Z,4.03
2023-05-19T15:51:31.656Z,4.07
2023-05-19T15:54:34.848Z,6.75
2023-05-19T15:57:37.523Z,4.57
2023-05-19T16:00:39.846Z,4.13
2023-05-19T16:03:44.469Z,4.63
2023-05-19T16:06:46.947Z,4.88
2023-05-19T16:09:50.055Z,4.10
2023-05-19T16:12:55.288Z,3.63
2023-05-19T16:15:57.723Z,6.93
2023-05-19T16:19:00.178Z,4.50
2023-05-19T16:22:02.526Z,6.40
2023-05-19T16:25:05.616Z,4.68
2023-05-19T16:28:07.993Z,5.65
2023-05-19T16:31:10.364Z,4.07
2023-05-19T16:34:12.656Z,4.10
2023-05-19T16:37:16.216Z,4.80
2023-05-19T16:40:18.655Z,5.63
2023-05-19T16:43:20.982Z,4.68
2023-05-19T16:46:23.705Z,4.57
2023-05-19T16:49:26.223Z,4.47
2023-05-19T16:52:29.306Z,4.95
2023-05-19T16:55:31.785Z,4.47
2023-05-19T16:58:34.665Z,5.00
2023-05-19T17:01:37.179Z,4.00
2023-05-19T17:04:39.504Z,4.70
2023-05-19T17:07:41.836Z,3.88
2023-05-19T17:10:44.911Z,4.38
2023-05-19T17:13:47.505Z,4.97
2023-05-19T17:16:49.906Z,7.30
2023-05-19T17:19:52.389Z,5.72
2023-05-19T17:22:54.800Z,4.65
2023-05-19T17:25:57.144Z,5.63
2023-05-19T17:28:59.423Z,5.88
2023-05-19T17:32:01.747Z,4.73
2023-05-19T17:35:06.720Z,7.43
2023-05-19T17:38:10.800Z,4.55
2023-05-19T17:41:14.285Z,6.70
2023-05-19T17:44:16.783Z,6.22
2023-05-19T17:47:19.066Z,8.07
2023-05-19T17:50:21.549Z,4.20
2023-05-19T17:53:24.423Z,5.32
2023-05-19T17:56:32.424Z,4.90
2023-05-19T17:59:34.967Z,6.90
2023-05-19T18:02:38.134Z,5.13
2023-05-19T18:05:43.351Z,5.47
2023-05-19T18:08:51.567Z,7.85
2023-05-19T18:11:55.081Z,7.03
2023-05-19T18:14:57.514Z,11.45
2023-05-19T18:18:00.280Z,7.27
2023-05-19T18:21:02.823Z,6.90
2023-05-19T18:24:06.087Z,10.48
2023-05-19T18:27:08.389Z,9.73
2023-05-19T18:30:11.090Z,12.18
2023-05-19T18:33:13.517Z,10.07
2023-05-19T18:36:16.731Z,11.95
2023-05-19T18:39:19.334Z,11.07
2023-05-19T18:42:21.870Z,12.00
2023-05-19T18:45:24.189Z,9.63
2023-05-19T18:48:27.032Z,9.90
2023-05-19T18:51:30.083Z,10.95
2023-05-19T18:54:32.657Z,13.38
2023-05-19T18:57:34.943Z,14.57
2023-05-19T19:00:37.442Z,11.70
2023-05-19T19:03:39.788Z,10.90
2023-05-19T19:06:43.831Z,9.27
2023-05-19T19:09:46.322Z,10.88
2023-05-19T19:12:48.780Z,14.20
2023-05-19T19:15:51.130Z,16.60
2023-05-19T19:18:53.572Z,14.27
2023-05-19T19:21:55.988Z,16.15
2023-05-19T19:24:58.292Z,14.63
2023-05-19T19:28:01.465Z,15.25
2023-05-19T19:31:03.856Z,16.00
2023-05-19T19:34:09.186Z,17.30
2023-05-19T19:37:11.552Z,13.40
2023-05-19T19:40:14.206Z,14.40
2023-05-19T19:43:16.563Z,14.65
2023-05-19T19:46:20.258Z,14.98
2023-05-19T19:49:22.555Z,17.23
2023-05-19T19:52:25.512Z,21.10
2023-05-19T19:55:28.929Z,15.35
2023-05-19T19:58:31.317Z,13.27
2023-05-19T20:01:33.961Z,16.35
2023-05-19T20:04:36.581Z,10.87
2023-05-19T20:07:39.606Z,11.35
2023-05-19T20:10:44.010Z,9.45
2023-05-19T20:13:47.171Z,9.48
2023-05-19T20:16:49.533Z,11.48
2023-05-19T20:19:51.905Z,11.13
2023-05-19T20:22:54.213Z,10.48
2023-05-19T20:26:11.043Z,11.90
2023-05-19T20:29:14.648Z,14.18
2023-05-19T20:32:17.075Z,15.07
2023-05-19T20:35:19.406Z,14.33
2023-05-19T20:38:21.745Z,10.80
2023-05-19T20:41:24.119Z,13.05
2023-05-19T20:44:27.842Z,12.50
2023-05-19T20:47:30.719Z,9.48
2023-05-19T20:50:34.402Z,13.43
2023-05-19T20:53:38.065Z,12.38
2023-05-19T20:56:40.448Z,12.98
2023-05-19T20:59:42.751Z,9.30
2023-05-19T21:02:45.150Z,10.45
2023-05-19T21:05:47.522Z,12.17
2023-05-19T21:08:50.332Z,12.10
2023-05-19T21:11:55.749Z,11.88
2023-05-19T21:14:58.082Z,10.32
2023-05-19T21:18:00.487Z,9.98
2023-05-19T21:21:04.152Z,9.43
2023-05-19T21:24:06.617Z,12.30
2023-05-19T21:27:09.012Z,10.63
2023-05-19T21:30:12.319Z,10.43
2023-05-19T21:33:14.776Z,11.07
2023-05-19T21:36:17.254Z,13.93
2023-05-19T21:39:19.604Z,12.60
2023-05-19T21:42:21.911Z,14.20
2023-05-19T21:45:24.395Z,10.32
2023-05-19T21:48:26.754Z,10.95
2023-05-19T21:51:29.275Z,10.97
2023-05-19T21:54:31.659Z,12.80
2023-05-19T21:57:35.453Z,10.48
2023-05-19T22:00:38.346Z,10.82
2023-05-19T22:03:40.836Z,15.05
2023-05-19T22:06:43.332Z,11.13
2023-05-19T22:09:48.185Z,10.48
2023-05-19T22:12:51.185Z,10.32
2023-05-19T22:15:53.651Z,9.90
2023-05-19T22:18:56.123Z,8.73
2023-05-19T22:22:09.690Z,13.23
2023-05-19T22:25:16.107Z,9.93
2023-05-19T22:28:18.454Z,11.55
2023-05-19T22:31:21.669Z,10.13
2023-05-19T22:34:24.436Z,9.82
2023-05-19T22:37:28.999Z,10.23
2023-05-19T22:40:32.658Z,10.43
2023-05-19T22:43:35.220Z,9.48
2023-05-19T22:46:37.760Z,9.65
2023-05-19T22:49:42.887Z,9.05
2023-05-19T22:52:45.254Z,10.67
2023-05-19T22:55:47.718Z,9.38
2023-05-19T22:58:50.120Z,11.43
2023-05-19T23:01:52.485Z,10.10
2023-05-19T23:04:54.844Z,11.00
2023-05-19T23:07:57.179Z,11.23
2023-05-19T23:11:01.022Z,12.35
2023-05-19T23:14:03.364Z,12.15
2023-05-19T23:17:05.882Z,13.07
2023-05-19T23:20:08.600Z,15.00
2023-05-19T23:23:10.989Z,11.53
2023-05-19T23:26:16.085Z,11.90
2023-05-19T23:29:18.524Z,14.77
2023-05-19T23:32:20.912Z,13.60
2023-05-19T23:35:23.206Z,11.95
2023-05-19T23:38:27.095Z,14.27
2023-05-19T23:41:29.605Z,15.27
2023-05-19T23:44:31.926Z,13.60
2023-05-19T23:47:34.340Z,13.75
2023-05-19T23:50:36.737Z,15.88
2023-05-19T23:53:39.181Z,14.13
2023-05-19T23:56:42.546Z,12.25
2023-05-19T23:59:44.970Z,13.80
